createdAt,value
2022-10-19T05:36:49.711Z,97564.38
2022-10-19T05:38:53.736Z,97563.97
2022-10-19T05:40:59.115Z,97559.25
2022-10-19T05:43:02.099Z,97561.31
2022-10-19T05:45:05.783Z,97563.03
2022-10-19T05:47:09.080Z,97558.78
2022-10-19T05:49:12.982Z,97564.66
2022-10-19T05:51:28.786Z,97558.16
2022-10-19T05:53:34.549Z,97557.91
2022-10-19T05:55:37.538Z,97557.25
2022-10-19T05:57:42.409Z,97558.41
2022-10-19T05:59:46.765Z,97551.56
2022-10-19T06:01:49.735Z,97560.78
2022-10-19T06:03:54.060Z,97558.69
2022-10-19T06:05:57.855Z,97561.16
2022-10-19T06:08:00.708Z,97557.19
2022-10-19T06:10:05.548Z,97560.69
2022-10-19T06:12:08.437Z,97554.50
2022-10-19T06:14:14.551Z,97559.88
2022-10-19T06:16:20.260Z,97565.22
2022-10-19T06:18:25.707Z,97559.41
2022-10-19T06:20:29.539Z,97561.41
2022-10-19T06:22:32.408Z,97560.94
2022-10-19T06:24:38.395Z,97562.34
2022-10-19T06:26:44.759Z,97562.97
2022-10-19T06:28:50.269Z,97564.59
2022-10-19T06:31:00.318Z,97566.81
2022-10-19T06:35:11.884Z,97564.94
2022-10-19T06:37:17.304Z,97564.13
2022-10-19T06:39:20.469Z,97555.63
2022-10-19T06:41:23.908Z,97548.41
2022-10-19T06:43:28.760Z,97557.84
2022-10-19T06:45:35.922Z,97554.97
2022-10-19T06:47:39.226Z,97555.78
2022-10-19T06:49:42.160Z,97557.41
2022-10-19T06:51:45.135Z,97558.22
2022-10-19T06:53:49.724Z,97561.72
2022-10-19T06:55:58.622Z,97563.94
2022-10-19T06:58:02.404Z,97572.56
2022-10-19T07:00:09.186Z,97574.19
2022-10-19T07:02:13.267Z,97572.13
2022-10-19T07:04:16.203Z,97566.75
2022-10-19T07:06:19.575Z,97579.94
2022-10-19T07:08:23.169Z,97582.38
2022-10-19T07:10:26.060Z,97579.47
2022-10-19T07:12:31.832Z,97574.91
2022-10-19T07:14:39.022Z,97575.50
2022-10-19T07:16:43.978Z,97575.28
2022-10-19T07:18:47.157Z,97573.16
2022-10-19T07:20:55.701Z,97563.88
2022-10-19T07:22:59.470Z,97562.81
2022-10-19T07:25:02.607Z,97558.03
2022-10-19T07:27:05.623Z,97564.22
2022-10-19T07:29:08.761Z,97554.88
2022-10-19T07:31:20.930Z,97561.88
2022-10-19T07:33:25.702Z,97557.13
2022-10-19T07:35:28.510Z,97564.94
2022-10-19T07:37:31.507Z,97572.75
2022-10-19T07:39:34.514Z,97569.03
2022-10-19T07:41:37.592Z,97569.59
2022-10-19T07:43:41.349Z,97571.25
2022-10-19T07:45:44.281Z,97567.53
2022-10-19T07:47:47.389Z,97569.16
2022-10-19T07:49:51.543Z,97567.06
2022-10-19T07:51:56.086Z,97568.72
2022-10-19T07:53:59.247Z,97563.34
2022-10-19T07:56:05.247Z,97574.44
2022-10-19T07:58:07.980Z,97574.44
2022-10-19T08:00:13.027Z,97570.69
2022-10-19T08:02:17.701Z,97574.19
2022-10-19T08:06:45.166Z,97580.72
2022-10-19T08:08:49.039Z,97583.41
2022-10-19T08:10:51.888Z,97574.31
2022-10-19T08:12:55.948Z,97579.66
2022-10-19T08:14:58.708Z,97561.50
2022-10-19T08:17:01.744Z,97562.66
2022-10-19T08:19:08.116Z,97562.41
2022-10-19T08:21:11.488Z,97564.88
2022-10-19T08:23:15.589Z,97560.06
2022-10-19T08:25:19.702Z,97552.63
2022-10-19T08:27:22.443Z,97545.97
2022-10-19T08:29:27.745Z,97536.06
2022-10-19T08:31:33.619Z,97537.69
2022-10-19T08:33:36.359Z,97535.59
2022-10-19T08:35:39.086Z,97541.31
2022-10-19T08:37:45.165Z,97529.75
2022-10-19T08:39:49.741Z,97537.34
2022-10-19T08:42:01.513Z,97542.22
2022-10-19T08:44:22.877Z,97549.22
2022-10-19T08:46:33.666Z,97542.81
2022-10-19T08:48:42.855Z,97541.19
2022-10-19T08:50:46.923Z,97535.81
2022-10-19T08:52:56.292Z,97535.56
2022-10-19T08:55:04.399Z,97529.16
2022-10-19T08:57:25.268Z,97534.53
2022-10-19T08:59:34.910Z,97531.03
2022-10-19T09:01:44.001Z,97525.22
2022-10-19T09:03:55.499Z,97529.28
2022-10-19T09:06:06.226Z,97528.22
2022-10-19T09:08:15.295Z,97523.69
2022-10-19T09:10:26.116Z,97524.50
2022-10-19T09:12:38.864Z,97534.75
2022-10-19T09:14:48.480Z,97530.19
2022-10-19T09:16:51.845Z,97529.38
2022-10-19T09:21:06.856Z,97516.78
2022-10-19T09:23:21.247Z,97517.34
2022-10-19T09:25:27.033Z,97516.06
2022-10-19T09:27:34.271Z,97523.31
2022-10-19T09:29:43.149Z,97519.56
2022-10-19T09:31:46.771Z,97516.91
2022-10-19T09:33:55.616Z,97523.88
2022-10-19T09:36:01.000Z,97519.34
2022-10-19T09:38:06.911Z,97522.84
2022-10-19T09:40:16.495Z,97519.34
2022-10-19T09:42:23.983Z,97509.41
2022-10-19T09:44:28.048Z,97501.34
2022-10-19T09:46:51.847Z,97501.34
2022-10-19T09:48:55.095Z,97500.88
2022-10-19T09:51:00.131Z,97496.91
2022-10-19T09:53:06.498Z,97502.63
2022-10-19T09:55:24.219Z,97496.78
2022-10-19T09:57:28.320Z,97496.03
2022-10-19T09:59:34.362Z,97488.81
2022-10-19T10:01:43.082Z,97486.72
2022-10-19T10:03:53.841Z,97497.00
2022-10-19T10:06:03.631Z,97488.72
2022-10-19T10:08:14.827Z,97490.09
2022-10-19T10:10:28.111Z,97495.81
2022-10-19T10:12:36.506Z,97504.22
2022-10-19T10:14:40.059Z,97508.03
2022-10-19T10:16:43.108Z,97504.53
2022-10-19T10:18:55.173Z,97500.78
2022-10-19T10:21:01.403Z,97503.25
2022-10-19T10:23:06.695Z,97497.66
2022-10-19T10:25:14.805Z,97493.09
2022-10-19T10:27:31.648Z,97490.41
2022-10-19T10:29:37.662Z,97487.72
2022-10-19T10:31:43.409Z,97483.88
2022-10-19T10:33:55.136Z,97495.41
2022-10-19T10:36:04.260Z,97485.97
2022-10-19T10:38:10.446Z,97488.41
2022-10-19T10:40:25.053Z,97483.63
2022-10-19T10:42:37.299Z,97479.66
2022-10-19T10:44:48.860Z,97477.53
2022-10-19T10:46:56.624Z,97480.81
2022-10-19T10:49:01.375Z,97476.25
2022-10-19T10:51:08.240Z,97469.00
2022-10-19T10:53:33.693Z,97463.63
2022-10-19T10:55:37.059Z,97461.75
2022-10-19T10:57:42.934Z,97456.63
2022-10-19T10:59:55.131Z,97453.94
2022-10-19T11:02:03.432Z,97450.19
2022-10-19T11:04:09.323Z,97458.25
2022-10-19T11:06:13.502Z,97451.81
2022-10-19T11:08:23.770Z,97453.94
2022-10-19T11:10:31.148Z,97439.94
2022-10-19T11:12:38.739Z,97435.13
2022-10-19T11:14:50.420Z,97440.00
2022-10-19T11:16:56.368Z,97435.69
2022-10-19T11:19:07.351Z,97428.69
2022-10-19T11:21:14.079Z,97436.75
2022-10-19T11:23:24.371Z,97427.63
2022-10-19T11:25:37.090Z,97427.06
2022-10-19T11:27:51.183Z,97428.69
2022-10-19T11:30:09.551Z,97424.94
2022-10-19T11:32:21.212Z,97414.22
2022-10-19T11:34:38.659Z,97408.84
2022-10-19T11:36:52.519Z,97395.16
2022-10-19T11:39:04.987Z,97391.16
2022-10-19T11:41:18.510Z,97382.88
2022-10-19T11:43:33.577Z,97390.94
2022-10-19T11:45:48.491Z,97379.38
2022-10-19T11:48:10.816Z,97385.31
2022-10-19T11:50:31.175Z,97376.19
2022-10-19T11:52:46.469Z,97371.06
2022-10-19T11:55:04.192Z,97363.25
2022-10-19T11:57:13.173Z,97368.13
2022-10-19T11:59:24.378Z,97364.41
2022-10-19T12:01:42.461Z,97346.66
2022-10-19T12:04:17.284Z,97356.09
2022-10-19T12:06:26.809Z,97349.09
2022-10-19T12:08:43.645Z,97356.91
2022-10-19T12:10:58.336Z,97352.34
2022-10-19T12:13:05.768Z,97348.59
2022-10-19T12:15:21.628Z,97344.84
2022-10-19T12:17:30.493Z,97340.88
2022-10-19T12:19:41.236Z,97339.81
2022-10-19T12:21:45.881Z,97336.06
2022-10-19T12:23:49.686Z,97325.56
2022-10-19T12:25:54.111Z,97324.16
2022-10-19T12:27:58.320Z,97319.59
2022-10-19T12:30:07.938Z,97317.16
2022-10-19T12:32:14.755Z,97318.22
2022-10-19T12:34:29.246Z,97320.66
2022-10-19T12:36:42.238Z,97319.38
2022-10-19T12:39:00.091Z,97324.25
2022-10-19T12:41:10.683Z,97325.88
2022-10-19T12:43:18.131Z,97324.00
2022-10-19T12:45:28.546Z,97314.06
2022-10-19T12:47:32.010Z,97308.69
2022-10-19T12:49:45.353Z,97310.31
2022-10-19T12:51:48.482Z,97301.19
2022-10-19T12:53:51.351Z,97297.94
2022-10-19T12:56:01.015Z,97293.06
2022-10-19T12:58:06.266Z,97297.88
2022-10-19T13:00:22.296Z,97302.19
2022-10-19T13:02:30.831Z,97306.25
2022-10-19T13:04:37.662Z,97297.94
2022-10-19T13:06:45.131Z,97314.06
2022-10-19T13:08:56.520Z,97302.81
2022-10-19T13:11:05.706Z,97297.19
2022-10-19T13:13:47.090Z,97300.69
2022-10-19T13:15:52.240Z,97291.81
2022-10-19T13:17:56.072Z,97286.13
2022-10-19T13:20:33.724Z,97285.81
2022-10-19T13:22:38.241Z,97281.81
2022-10-19T13:26:49.657Z,97275.63
2022-10-19T13:28:56.831Z,97273.75
2022-10-19T13:31:09.402Z,97267.31
2022-10-19T13:33:45.625Z,97263.56
2022-10-19T13:35:48.706Z,97256.56
2022-10-19T13:38:26.390Z,97256.81
2022-10-19T13:40:30.094Z,97257.88
2022-10-19T13:42:33.602Z,97261.94
2022-10-19T13:44:39.828Z,97263.56
2022-10-19T13:46:55.394Z,97259.34
2022-10-19T13:49:29.056Z,97262.09
2022-10-19T13:51:43.958Z,97265.88
2022-10-19T13:54:23.311Z,97261.91
2022-10-19T13:56:46.467Z,97253.59
2022-10-19T13:59:23.405Z,97256.84
2022-10-19T14:01:39.527Z,97257.16
2022-10-19T14:04:05.050Z,97256.66
2022-10-19T14:06:27.637Z,97255.34
2022-10-19T14:09:00.936Z,97249.47
2022-10-19T14:11:07.859Z,97249.47
2022-10-19T14:13:14.970Z,97252.16
2022-10-19T14:15:24.197Z,97250.03
2022-10-19T14:17:34.177Z,97247.34
2022-10-19T14:19:43.995Z,97242.81
2022-10-19T14:21:47.144Z,97233.09
2022-10-19T14:23:52.105Z,97234.16
2022-10-19T14:25:58.150Z,97229.59
2022-10-19T14:28:06.773Z,97230.19
2022-10-19T14:30:22.782Z,97218.34
2022-10-19T14:32:27.996Z,97220.22
2022-10-19T14:34:31.163Z,97209.69
2022-10-19T14:36:37.720Z,97213.47
2022-10-19T14:38:43.487Z,97211.03
2022-10-19T14:40:46.283Z,97210.53
2022-10-19T14:42:49.938Z,97220.44
2022-10-19T14:44:55.385Z,97221.84
2022-10-19T14:47:01.334Z,97219.41
2022-10-19T14:49:06.688Z,97224.78
2022-10-19T14:51:18.619Z,97228.53
2022-10-19T14:53:34.882Z,97227.97
2022-10-19T14:55:42.017Z,97223.66
2022-10-19T14:57:47.563Z,97223.91
2022-10-19T14:59:53.866Z,97224.63
2022-10-19T15:02:00.720Z,97216.00
2022-10-19T15:04:04.191Z,97220.84
2022-10-19T15:06:08.897Z,97213.84
2022-10-19T15:08:20.323Z,97207.09
2022-10-19T15:10:27.644Z,97202.19
2022-10-19T15:12:38.410Z,97207.00
2022-10-19T15:14:41.788Z,97199.19
2022-10-19T15:16:48.121Z,97215.03
2022-10-19T15:18:52.549Z,97219.25
2022-10-19T15:21:12.071Z,97210.88
2022-10-19T15:23:39.101Z,97224.31
2022-10-19T15:25:41.867Z,97206.06
2022-10-19T15:27:47.749Z,97200.69
2022-10-19T15:29:57.017Z,97189.94
2022-10-19T15:32:14.726Z,97196.13
2022-10-19T15:34:25.582Z,97191.56
2022-10-19T15:36:30.617Z,97191.56
2022-10-19T15:38:34.690Z,97183.50
2022-10-19T15:40:41.290Z,97182.44
2022-10-19T15:42:46.838Z,97178.72
2022-10-19T15:44:49.777Z,97177.06
2022-10-19T15:47:19.389Z,97175.44
2022-10-19T15:49:54.392Z,97181.63
2022-10-19T15:51:57.045Z,97184.56
2022-10-19T15:54:01.664Z,97182.13
2022-10-19T15:58:13.460Z,97178.84
2022-10-19T16:00:20.161Z,97183.97
2022-10-19T16:02:25.122Z,97191.22
2022-10-19T16:04:27.837Z,97191.22
2022-10-19T16:06:34.113Z,97184.75
2022-10-19T16:08:36.994Z,97184.75
2022-10-19T16:10:39.884Z,97192.00
2022-10-19T16:12:42.714Z,97189.59
2022-10-19T16:14:45.515Z,97191.44
2022-10-19T16:16:50.992Z,97190.06
2022-10-19T16:18:54.865Z,97188.44
2022-10-19T16:20:57.779Z,97186.00
2022-10-19T16:23:02.159Z,97187.06
2022-10-19T16:25:05.958Z,97182.19
2022-10-19T16:27:10.008Z,97185.94
2022-10-19T16:29:12.848Z,97180.56
2022-10-19T16:31:16.659Z,97178.34
2022-10-19T16:33:19.398Z,97181.56
2022-10-19T16:35:22.355Z,97179.94
2022-10-19T16:37:25.055Z,97176.69
2022-10-19T16:39:29.127Z,97180.44
2022-10-19T16:41:32.298Z,97183.59
2022-10-19T16:43:36.050Z,97175.22
2022-10-19T16:45:43.100Z,97181.41
2022-10-19T16:47:45.882Z,97180.59
2022-10-19T16:49:48.759Z,97192.16
2022-10-19T16:51:54.768Z,97195.09
2022-10-19T16:54:00.391Z,97205.56
2022-10-19T16:56:08.932Z,97207.69
2022-10-19T16:58:11.743Z,97205.28
2022-10-19T17:00:14.421Z,97214.13
2022-10-19T17:02:17.316Z,97210.88
2022-10-19T17:04:20.394Z,97214.94
2022-10-19T17:06:23.992Z,97207.94
2022-10-19T17:08:36.687Z,97204.44
2022-10-19T17:10:47.433Z,97211.69
2022-10-19T17:12:51.655Z,97205.97
2022-10-19T17:15:02.962Z,97210.28
2022-10-19T17:17:18.008Z,97205.97
2022-10-19T17:19:20.724Z,97212.41
2022-10-19T17:21:26.581Z,97204.88
2022-10-19T17:23:29.400Z,97205.44
2022-10-19T17:25:32.321Z,97208.09
2022-10-19T17:27:35.047Z,97200.31
2022-10-19T17:29:39.168Z,97211.28
2022-10-19T17:31:42.724Z,97208.59
2022-10-19T17:33:45.579Z,97206.19
2022-10-19T17:35:48.711Z,97208.84
2022-10-19T17:37:51.443Z,97206.97
2022-10-19T17:39:54.145Z,97212.56
2022-10-19T17:41:57.399Z,97216.06
2022-10-19T17:44:00.311Z,97214.44
2022-10-19T17:46:06.379Z,97218.19
2022-10-19T17:48:09.336Z,97226.47
2022-10-19T17:50:12.057Z,97230.22
2022-10-19T17:52:14.770Z,97233.16
2022-10-19T17:54:17.441Z,97235.84
2022-10-19T17:56:21.868Z,97235.84
2022-10-19T17:58:24.621Z,97230.72
2022-10-19T18:00:27.330Z,97227.22
2022-10-19T18:02:32.660Z,97221.28
2022-10-19T18:06:40.030Z,97209.97
2022-10-19T18:08:44.834Z,97216.97
2022-10-19T18:10:47.740Z,97223.41
2022-10-19T18:12:50.607Z,97228.78
2022-10-19T18:14:53.487Z,97225.53
2022-10-19T18:16:56.375Z,97228.78
2022-10-19T18:19:02.130Z,97219.09
2022-10-19T18:21:05.823Z,97221.19
2022-10-19T18:23:08.632Z,97231.91
2022-10-19T18:25:11.415Z,97232.97
2022-10-19T18:27:14.306Z,97235.09
2022-10-19T18:29:19.240Z,97220.63
2022-10-19T18:31:23.850Z,97221.69
2022-10-19T18:33:30.182Z,97222.75
2022-10-19T18:35:38.419Z,97221.13
2022-10-19T18:37:41.226Z,97216.81
2022-10-19T18:39:43.903Z,97222.19
2022-10-19T18:41:48.253Z,97226.97
2022-10-19T18:43:52.735Z,97232.59
2022-10-19T18:45:57.014Z,97232.59
2022-10-19T18:47:59.802Z,97228.50
2022-10-19T18:50:02.752Z,97234.94
2022-10-19T18:52:06.920Z,97238.69
2022-10-19T18:54:11.710Z,97233.81
2022-10-19T18:56:15.817Z,97220.63
2022-10-19T18:58:18.778Z,97222.50
2022-10-19T19:00:21.520Z,97214.91
2022-10-19T19:02:34.766Z,97208.97
2022-10-19T19:04:39.054Z,97210.28
2022-10-19T19:06:42.205Z,97214.59
2022-10-19T19:08:46.559Z,97211.09
2022-10-19T19:10:49.643Z,97212.16
2022-10-19T19:12:52.796Z,97218.00
2022-10-19T19:14:56.089Z,97217.22
2022-10-19T19:16:59.504Z,97210.22
2022-10-19T19:19:02.361Z,97211.03
2022-10-19T19:21:14.970Z,97218.25
2022-10-19T19:23:17.964Z,97214.75
2022-10-19T19:25:22.064Z,97214.97
2022-10-19T19:27:28.336Z,97215.78
2022-10-19T19:29:34.479Z,97217.91
2022-10-19T19:31:39.216Z,97208.25
2022-10-19T19:33:42.211Z,97208.25
2022-10-19T19:35:46.061Z,97221.09
2022-10-19T19:37:48.874Z,97211.66
2022-10-19T19:39:51.650Z,97216.22
2022-10-19T19:41:55.898Z,97218.09
2022-10-19T19:43:59.287Z,97225.31
2022-10-19T19:46:07.980Z,97214.00
2022-10-19T19:48:12.094Z,97220.41
2022-10-19T19:50:14.867Z,97218.78
2022-10-19T19:52:17.805Z,97220.91
2022-10-19T19:54:20.935Z,97220.91
2022-10-19T19:56:24.426Z,97212.28
2022-10-19T19:58:28.706Z,97216.84
2022-10-19T20:00:31.558Z,97223.25
2022-10-19T20:02:37.280Z,97225.13
2022-10-19T20:04:40.175Z,97227.56
2022-10-19T20:06:44.590Z,97223.03
2022-10-19T20:08:47.796Z,97223.81
2022-10-19T20:10:50.522Z,97221.41
2022-10-19T20:12:53.436Z,97221.88
2022-10-19T20:14:57.544Z,97216.53
2022-10-19T20:17:00.412Z,97221.28
2022-10-19T20:19:07.377Z,97217.47
2022-10-19T20:21:11.706Z,97214.78
2022-10-19T20:23:14.606Z,97221.19
2022-10-19T20:25:17.680Z,97217.47
2022-10-19T20:27:20.590Z,97228.19
2022-10-19T20:29:23.384Z,97233.56
2022-10-19T20:33:32.628Z,97239.50
2022-10-19T20:35:37.174Z,97232.25
2022-10-19T20:37:40.283Z,97240.88
2022-10-19T20:39:42.971Z,97233.63
2022-10-19T21:11:19.179Z,97228.63
2022-10-19T21:13:21.931Z,97230.69
2022-10-19T21:15:26.081Z,97230.16
2022-10-19T21:17:28.820Z,97232.00
2022-10-19T21:19:31.853Z,97239.19
2022-10-19T21:21:36.263Z,97237.19
2022-10-19T21:23:39.030Z,97243.00
2022-10-19T21:25:41.780Z,97245.78
2022-10-19T21:27:45.815Z,97250.41
2022-10-19T21:29:48.528Z,97246.19
2022-10-19T21:31:53.372Z,97237.09
2022-10-19T21:33:56.339Z,97237.69
2022-10-19T21:36:02.115Z,97234.75
2022-10-19T21:38:04.900Z,97231.81
2022-10-19T21:40:08.768Z,97243.69
2022-10-19T21:42:11.471Z,97238.31
2022-10-19T21:44:17.606Z,97237.25
2022-10-19T21:46:22.095Z,97230.88
2022-10-19T21:48:25.094Z,97229.81
2022-10-19T21:50:28.182Z,97222.31
2022-10-19T21:52:30.865Z,97225.81
2022-10-19T21:54:33.607Z,97224.75
2022-10-19T21:56:37.479Z,97224.50
2022-10-19T21:58:44.655Z,97227.44
2022-10-19T22:00:49.038Z,97223.94
2022-10-19T22:02:51.718Z,97215.91
2022-10-19T22:04:54.554Z,97205.66
2022-10-19T22:06:59.669Z,97218.59
2022-10-19T22:09:03.382Z,97204.59
2022-10-19T22:11:07.703Z,97209.47
2022-10-19T22:13:10.422Z,97210.28
